Time,TemperatureF,DewpointF,PressureIn,WindDirection,WindDirectionDegrees,WindSpeedMPH,WindSpeedGustMPH,Humidity,HourlyPrecipIn,Conditions,Clouds,dailyrainin,SoftwareType,DateUTC
2013-05-15 00:12:00,47.2,32.0,29.88,NE,39,0.0,-999.0,55,-99.99,,,0.00,weatherlink.com 1.10,2013-05-15 07:12:00,
2013-05-15 00:27:00,46.7,31.0,29.88,NE,39,0.0,-999.0,55,-99.99,,,0.00,weatherlink.com 1.10,2013-05-15 07:27:00,
2013-05-15 00:42:00,46.2,31.0,29.88,NE,39,0.0,-999.0,55,-99.99,,,0.00,weatherlink.com 1.10,2013-05-15 07:42:00,
2013-05-15 00:57:00,45.9,31.0,29.88,NE,39,0.0,-999.0,56,-99.99,,,0.00,weatherlink.com 1.10,2013-05-15 07:57:00,
2013-05-15 01:12:00,45.5,30.0,29.88,NE,39,0.0,-999.0,56,-99.99,,,0.00,weatherlink.com 1.10,2013-05-15 08:12:00,
2013-05-15 01:27:00,45.1,30.0,29.88,NE,39,0.0,-999.0,57,-99.99,,,0.00,weatherlink.com 1.10,2013-05-15 08:27:00,
2013-05-15 01:42:00,44.9,30.0,29.88,NE,39,0.0,-999.0,57,-99.99,,,0.00,weatherlink.com 1.10,2013-05-15 08:42:00,
2013-05-15 01:57:00,44.5,30.0,29.88,NE,39,0.0,-999.0,57,-99.99,,,0.00,weatherlink.com 1.10,2013-05-15 08:57:00,
2013-05-15 02:12:00,44.1,30.0,29.88,NE,39,0.0,-999.0,57,-99.99,,,0.00,weatherlink.com 1.10,2013-05-15 09:12:00,
2013-05-15 02:27:00,43.8,30.0,29.88,NE,39,0.0,-999.0,58,-99.99,,,0.00,weatherlink.com 1.10,2013-05-15 09:27:00,
2013-05-15 02:42:00,43.4,29.0,29.88,NE,39,0.0,-999.0,58,-99.99,,,0.00,weatherlink.com 1.10,2013-05-15 09:42:00,
2013-05-15 02:57:00,43.0,29.0,29.88,NE,39,0.0,-999.0,59,-99.99,,,0.00,weatherlink.com 1.10,2013-05-15 09:57:00,
2013-05-15 03:12:00,42.7,29.0,29.88,NE,39,0.0,-999.0,59,-99.99,,,0.00,weatherlink.com 1.10,2013-05-15 10:12:00,
2013-05-15 03:27:00,42.4,29.0,29.88,NE,39,0.0,-999.0,59,-99.99,,,0.00,weatherlink.com 1.10,2013-05-15 10:27:00,
2013-05-15 03:42:00,42.2,29.0,29.88,NE,39,0.0,-999.0,60,-99.99,,,0.00,weatherlink.com 1.10,2013-05-15 10:42:00,
2013-05-15 03:57:00,41.9,29.0,29.88,NE,39,0.0,-999.0,60,-99.99,,,0.00,weatherlink.com 1.10,2013-05-15 10:57:00,
2013-05-15 04:12:00,41.6,29.0,29.89,NE,39,0.0,-999.0,61,-99.99,,,0.00,weatherlink.com 1.10,2013-05-15 11:12:00,
2013-05-15 04:27:00,41.3,29.0,29.89,NE,39,0.0,-999.0,61,-99.99,,,0.00,weatherlink.com 1.10,2013-05-15 11:27:00,
2013-05-15 04:42:00,41.0,29.0,29.89,NE,39,0.0,-999.0,62,-99.99,,,0.00,weatherlink.com 1.10,2013-05-15 11:42:00,
2013-05-15 05:13:00,40.3,28.0,29.90,NE,39,1.0,-999.0,62,-99.99,,,0.00,weatherlink.com 1.10,2013-05-15 12:13:00,
2013-05-15 05:43:00,39.7,28.0,29.90,NE,39,0.0,-999.0,64,-99.99,,,0.00,weatherlink.com 1.10,2013-05-15 12:43:00,
2013-05-15 05:58:00,40.1,29.0,29.90,NE,39,0.0,-999.0,64,-99.99,,,0.00,weatherlink.com 1.10,2013-05-15 12:58:00,
2013-05-15 06:13:00,40.8,29.0,29.90,NE,39,0.0,-999.0,64,-99.99,,,0.00,weatherlink.com 1.10,2013-05-15 13:13:00,
2013-05-15 06:28:00,42.0,31.0,29.91,NE,39,0.0,-999.0,64,-99.99,,,0.00,weatherlink.com 1.10,2013-05-15 13:28:00,
2013-05-15 06:58:00,44.8,34.0,29.90,NE,39,0.0,-999.0,67,-99.99,,,0.00,weatherlink.com 1.10,2013-05-15 13:58:00,
2013-05-15 07:28:00,50.9,35.0,29.91,NE,39,1.0,-999.0,56,-99.99,,,0.00,weatherlink.com 1.10,2013-05-15 14:28:00,
2013-05-15 07:43:00,55.9,34.0,29.90,SSW,193,0.0,-999.0,44,-99.99,,,0.00,weatherlink.com 1.10,2013-05-15 14:43:00,
2013-05-15 07:58:00,59.5,33.0,29.90,SW,218,0.0,-999.0,37,-99.99,,,0.00,weatherlink.com 1.10,2013-05-15 14:58:00,
2013-05-15 08:13:00,62.0,32.0,29.90,WSW,253,1.0,-999.0,32,-99.99,,,0.00,weatherlink.com 1.10,2013-05-15 15:13:00,
2013-05-15 08:43:00,64.3,29.0,29.89,West,263,1.0,-999.0,26,-99.99,,,0.00,weatherlink.com 1.10,2013-05-15 15:43:00,
2013-05-15 08:58:00,65.1,28.0,29.90,WSW,248,3.0,-999.0,25,-99.99,,,0.00,weatherlink.com 1.10,2013-05-15 15:58:00,
2013-05-15 09:13:00,65.9,29.0,29.89,WSW,249,3.0,-999.0,25,-99.99,,,0.00,weatherlink.com 1.10,2013-05-15 16:13:00,
2013-05-15 09:28:00,66.3,27.0,29.89,SSW,196,4.0,-999.0,23,-99.99,,,0.00,weatherlink.com 1.10,2013-05-15 16:28:00,
2013-05-15 09:43:00,67.2,26.0,29.89,West,265,4.0,-999.0,21,-99.99,,,0.00,weatherlink.com 1.10,2013-05-15 16:43:00,
2013-05-15 09:58:00,68.1,25.0,29.89,SW,223,6.0,-999.0,20,-99.99,,,0.00,weatherlink.com 1.10,2013-05-15 16:58:00,
2013-05-15 10:13:00,68.4,26.0,29.89,SW,220,4.0,-999.0,20,-99.99,,,0.00,weatherlink.com 1.10,2013-05-15 17:13:00,
2013-05-15 10:28:00,69.0,25.0,29.90,South,188,6.0,-999.0,19,-99.99,,,0.00,weatherlink.com 1.10,2013-05-15 17:28:00,
2013-05-15 10:43:00,68.8,26.0,29.89,West,278,3.0,-999.0,20,-99.99,,,0.00,weatherlink.com 1.10,2013-05-15 17:43:00,
2013-05-15 11:13:00,70.0,28.0,29.90,South,176,6.0,-999.0,21,-99.99,,,0.00,weatherlink.com 1.10,2013-05-15 18:13:00,
2013-05-15 11:28:00,70.1,27.0,29.89,WSW,242,5.0,-999.0,20,-99.99,,,0.00,weatherlink.com 1.10,2013-05-15 18:28:00,
2013-05-15 11:44:00,71.1,28.0,29.89,SSW,207,8.0,-999.0,20,-99.99,,,0.00,weatherlink.com 1.10,2013-05-15 18:44:00,
2013-05-15 11:59:00,71.8,29.0,29.88,WSW,240,3.0,-999.0,20,-99.99,,,0.00,weatherlink.com 1.10,2013-05-15 18:59:00,
2013-05-15 12:14:00,71.7,26.0,29.87,ESE,118,7.0,-999.0,18,-99.99,,,0.00,weatherlink.com 1.10,2013-05-15 19:14:00,
2013-05-15 12:44:00,72.4,26.0,29.85,South,169,1.0,-999.0,18,-99.99,,,0.00,weatherlink.com 1.10,2013-05-15 19:44:00,
2013-05-15 12:59:00,72.8,27.0,29.84,SW,231,6.0,-999.0,18,-99.99,,,0.00,weatherlink.com 1.10,2013-05-15 19:59:00,
2013-05-15 13:14:00,73.8,28.0,29.83,South,186,10.0,-999.0,18,-99.99,,,0.00,weatherlink.com 1.10,2013-05-15 20:14:00,
2013-05-15 13:29:00,73.8,28.0,29.83,SW,233,2.0,-999.0,18,-99.99,,,0.00,weatherlink.com 1.10,2013-05-15 20:29:00,
2013-05-15 13:44:00,73.1,26.0,29.83,SW,225,11.0,-999.0,17,-99.99,,,0.00,weatherlink.com 1.10,2013-05-15 20:44:00,
2013-05-15 13:59:00,73.3,27.0,29.83,SW,224,2.0,-999.0,18,-99.99,,,0.00,weatherlink.com 1.10,2013-05-15 20:59:00,
2013-05-15 14:14:00,73.8,25.0,29.82,WSW,240,6.0,-999.0,16,-99.99,,,0.00,weatherlink.com 1.10,2013-05-15 21:14:00,
2013-05-15 14:29:00,74.1,24.0,29.81,SW,229,4.0,-999.0,15,-99.99,,,0.00,weatherlink.com 1.10,2013-05-15 21:29:00,
2013-05-15 14:44:00,74.2,27.0,29.80,SSE,151,6.0,-999.0,17,-99.99,,,0.00,weatherlink.com 1.10,2013-05-15 21:44:00,
2013-05-15 14:59:00,74.1,20.0,29.81,West,260,11.0,-999.0,13,-99.99,,,0.00,weatherlink.com 1.10,2013-05-15 21:59:00,
2013-05-15 15:44:00,73.6,21.0,29.80,SSW,194,9.0,-999.0,14,-99.99,,,0.00,weatherlink.com 1.10,2013-05-15 22:44:00,
2013-05-15 15:59:00,73.7,23.0,29.79,SSW,213,7.0,-999.0,15,-99.99,,,0.00,weatherlink.com 1.10,2013-05-15 22:59:00,
2013-05-15 16:14:00,73.4,23.0,29.80,SSE,164,10.0,-999.0,15,-99.99,,,0.00,weatherlink.com 1.10,2013-05-15 23:14:00,
2013-05-15 16:44:00,73.1,21.0,29.79,WSW,238,3.0,-999.0,14,-99.99,,,0.00,weatherlink.com 1.10,2013-05-15 23:44:00,
2013-05-15 16:59:00,72.6,22.0,29.78,SSE,160,4.0,-999.0,15,-99.99,,,0.00,weatherlink.com 1.10,2013-05-15 23:59:00,
2013-05-15 17:29:00,71.2,21.0,29.79,SSW,194,11.0,-999.0,15,-99.99,,,0.00,weatherlink.com 1.10,2013-05-16 00:29:00,
2013-05-15 17:44:00,70.9,19.0,29.78,SW,214,6.0,-999.0,14,-99.99,,,0.00,weatherlink.com 1.10,2013-05-16 00:44:00,
2013-05-15 17:59:00,70.7,19.0,29.78,West,266,2.0,-999.0,14,-99.99,,,0.00,weatherlink.com 1.10,2013-05-16 00:59:00,
2013-05-15 18:14:00,70.2,19.0,29.78,SW,234,6.0,-999.0,14,-99.99,,,0.00,weatherlink.com 1.10,2013-05-16 01:14:00,
2013-05-15 18:29:00,69.3,18.0,29.78,WSW,248,10.0,-999.0,14,-99.99,,,0.00,weatherlink.com 1.10,2013-05-16 01:29:00,
2013-05-15 19:14:00,67.0,14.0,29.79,SW,218,2.0,-999.0,13,-99.99,,,0.00,weatherlink.com 1.10,2013-05-16 02:14:00,
2013-05-15 19:29:00,66.3,16.0,29.80,SW,217,2.0,-999.0,14,-99.99,,,0.00,weatherlink.com 1.10,2013-05-16 02:29:00,
2013-05-15 19:44:00,65.7,15.0,29.81,SW,233,1.0,-999.0,14,-99.99,,,0.00,weatherlink.com 1.10,2013-05-16 02:44:00,
2013-05-15 19:59:00,64.8,14.0,29.81,WSW,257,0.0,-999.0,14,-99.99,,,0.00,weatherlink.com 1.10,2013-05-16 02:59:00,
2013-05-15 20:29:00,63.2,15.0,29.83,SSW,209,0.0,-999.0,15,-99.99,,,0.00,weatherlink.com 1.10,2013-05-16 03:29:00,
2013-05-15 20:44:00,60.8,14.0,29.84,SSW,209,0.0,-999.0,16,-99.99,,,0.00,weatherlink.com 1.10,2013-05-16 03:44:00,
2013-05-15 20:59:00,59.2,14.0,29.85,SSW,209,0.0,-999.0,17,-99.99,,,0.00,weatherlink.com 1.10,2013-05-16 03:59:00,
2013-05-15 21:14:00,57.9,14.0,29.86,SSW,209,0.0,-999.0,18,-99.99,,,0.00,weatherlink.com 1.10,2013-05-16 04:14:00,
2013-05-15 21:29:00,56.8,16.0,29.86,SSW,209,0.0,-999.0,20,-99.99,,,0.00,weatherlink.com 1.10,2013-05-16 04:29:00,
2013-05-15 21:44:00,54.9,17.0,29.86,SSW,209,0.0,-999.0,22,-99.99,,,0.00,weatherlink.com 1.10,2013-05-16 04:44:00,
2013-05-15 21:59:00,53.0,16.0,29.86,SSW,209,0.0,-999.0,23,-99.99,,,0.00,weatherlink.com 1.10,2013-05-16 04:59:00,
2013-05-15 22:14:00,51.2,16.0,29.85,SSW,209,0.0,-999.0,25,-99.99,,,0.00,weatherlink.com 1.10,2013-05-16 05:14:00,
2013-05-15 22:29:00,50.0,16.0,29.85,SSW,209,0.0,-999.0,26,-99.99,,,0.00,weatherlink.com 1.10,2013-05-16 05:29:00,
2013-05-15 22:44:00,49.0,17.0,29.85,SSW,209,0.0,-999.0,28,-99.99,,,0.00,weatherlink.com 1.10,2013-05-16 05:44:00,
2013-05-15 22:59:00,48.0,17.0,29.85,SSW,209,0.0,-999.0,29,-99.99,,,0.00,weatherlink.com 1.10,2013-05-16 05:59:00,
2013-05-15 23:14:00,47.4,17.0,29.85,SSW,209,0.0,-999.0,30,-99.99,,,0.00,weatherlink.com 1.10,2013-05-16 06:14:00,
2013-05-15 23:29:00,46.3,17.0,29.85,SSW,209,0.0,-999.0,31,-99.99,,,0.00,weatherlink.com 1.10,2013-05-16 06:29:00,
2013-05-15 23:44:00,45.1,17.0,29.85,SSW,209,2.0,-999.0,32,-99.99,,,0.00,weatherlink.com 1.10,2013-05-16 06:44:00,
2013-05-15 23:59:00,44.2,17.0,29.85,SSW,209,2.0,-999.0,34,-99.99,,,0.00,weatherlink.com 1.10,2013-05-16 06:59:00,